createdAt,value
2022-11-28T00:01:20.675Z,4.22
2022-11-28T00:04:03.982Z,4.28
2022-11-28T00:06:49.055Z,4.30
2022-11-28T00:09:32.068Z,4.10
2022-11-28T00:12:14.767Z,3.80
2022-11-28T00:14:58.929Z,4.18
2022-11-28T00:17:41.722Z,3.75
2022-11-28T00:20:24.746Z,3.88
2022-11-28T00:23:07.477Z,3.63
2022-11-28T00:25:57.247Z,4.10
2022-11-28T00:28:40.093Z,4.10
2022-11-28T00:31:25.354Z,3.63
2022-11-28T00:34:08.060Z,3.78
2022-11-28T00:36:50.737Z,3.42
2022-11-28T00:39:33.509Z,4.00
2022-11-28T00:42:16.614Z,3.35
2022-11-28T00:44:59.426Z,3.58
2022-11-28T00:47:43.485Z,3.63
2022-11-28T00:50:26.396Z,3.85
2022-11-28T00:53:09.213Z,3.92
2022-11-28T00:55:51.904Z,4.18
2022-11-28T00:58:35.069Z,3.42
2022-11-28T01:01:18.931Z,3.58
2022-11-28T01:04:04.804Z,3.88
2022-11-28T01:06:48.473Z,3.58
2022-11-28T01:09:31.144Z,3.72
2022-11-28T01:12:13.865Z,3.95
2022-11-28T01:14:58.251Z,3.53
2022-11-28T01:17:40.951Z,3.80
2022-11-28T01:20:24.991Z,4.15
2022-11-28T01:23:07.657Z,3.20
2022-11-28T01:25:50.356Z,3.42
2022-11-28T01:28:33.128Z,3.40
2022-11-28T01:31:18.107Z,3.33
2022-11-28T01:34:00.842Z,3.60
2022-11-28T01:36:44.961Z,3.53
2022-11-28T01:39:28.997Z,3.60
2022-11-28T01:42:16.752Z,3.40
2022-11-28T01:45:05.526Z,3.63
2022-11-28T01:47:49.277Z,3.17
2022-11-28T01:50:33.956Z,3.47
2022-11-28T01:53:18.268Z,3.20
2022-11-28T01:56:04.355Z,3.75
2022-11-28T01:58:50.259Z,3.40
2022-11-28T02:01:33.060Z,3.30
2022-11-28T02:04:15.911Z,3.13
2022-11-28T02:06:58.673Z,3.90
2022-11-28T02:09:42.756Z,3.35
2022-11-28T02:12:33.071Z,3.10
2022-11-28T02:15:23.630Z,3.55
2022-11-28T02:18:14.046Z,3.35
2022-11-28T02:21:04.743Z,3.20
2022-11-28T02:24:06.327Z,3.17
2022-11-28T02:27:07.412Z,3.35
2022-11-28T02:29:58.661Z,3.50
2022-11-28T02:32:59.310Z,3.08
2022-11-28T02:35:53.540Z,3.30
2022-11-28T02:38:42.758Z,3.30
2022-11-28T02:41:29.580Z,3.75
2022-11-28T02:44:14.941Z,3.50
2022-11-28T02:47:00.869Z,3.63
2022-11-28T02:49:48.464Z,2.92
2022-11-28T02:52:34.966Z,3.30
2022-11-28T02:55:18.081Z,3.15
2022-11-28T02:58:01.709Z,3.03
2022-11-28T03:00:45.786Z,3.63
2022-11-28T03:03:43.468Z,3.50
2022-11-28T03:06:33.025Z,3.70
2022-11-28T03:09:44.587Z,3.45
2022-11-28T03:12:32.370Z,3.58
2022-11-28T03:15:18.861Z,3.35
2022-11-28T03:18:05.626Z,3.42
2022-11-28T03:20:49.385Z,3.05
2022-11-28T03:23:35.001Z,3.42
2022-11-28T03:26:25.869Z,3.17
2022-11-28T03:29:10.125Z,3.55
2022-11-28T03:31:54.991Z,3.30
2022-11-28T03:34:39.610Z,3.30
2022-11-28T03:37:24.682Z,3.22
2022-11-28T03:40:09.382Z,3.72
2022-11-28T03:42:55.421Z,3.63
2022-11-28T03:45:39.722Z,3.25
2022-11-28T03:48:24.218Z,3.60
2022-11-28T03:51:09.566Z,3.50
2022-11-28T03:53:54.525Z,3.33
2022-11-28T03:56:40.672Z,3.30
2022-11-28T03:59:25.913Z,3.70
2022-11-28T04:02:12.982Z,3.60
2022-11-28T04:04:58.525Z,3.72
2022-11-28T04:07:43.954Z,3.53
2022-11-28T04:10:30.792Z,3.25
2022-11-28T04:13:16.635Z,3.13
2022-11-28T04:16:04.815Z,3.70
2022-11-28T04:18:51.780Z,3.58
2022-11-28T04:21:36.848Z,3.55
2022-11-28T04:24:20.687Z,3.50
2022-11-28T04:27:05.254Z,3.28
2022-11-28T04:29:49.478Z,3.40
2022-11-28T04:32:35.487Z,3.28
2022-11-28T04:35:20.443Z,3.47
2022-11-28T04:38:05.405Z,3.70
2022-11-28T04:40:49.466Z,3.72
2022-11-28T04:43:34.866Z,3.40
2022-11-28T04:46:20.290Z,3.60
2022-11-28T04:49:04.451Z,3.78
2022-11-28T04:51:50.762Z,3.70
2022-11-28T04:54:36.862Z,3.30
2022-11-28T04:57:22.838Z,3.60
2022-11-28T05:00:07.303Z,3.90
2022-11-28T05:02:51.636Z,3.67
2022-11-28T05:05:43.062Z,3.28
2022-11-28T05:08:26.200Z,3.58
2022-11-28T05:11:08.995Z,3.90
2022-11-28T05:13:51.642Z,4.15
2022-11-28T05:16:34.521Z,3.70
2022-11-28T05:19:17.414Z,3.83
2022-11-28T05:22:01.492Z,3.50
2022-11-28T05:24:44.436Z,3.20
2022-11-28T05:27:27.212Z,3.53
2022-11-28T05:30:11.334Z,3.50
2022-11-28T05:32:54.017Z,3.67
2022-11-28T05:35:39.741Z,3.40
2022-11-28T05:38:23.963Z,3.70
2022-11-28T05:41:07.107Z,3.40
2022-11-28T05:43:49.816Z,3.53
2022-11-28T05:46:32.609Z,3.80
2022-11-28T05:49:15.310Z,3.97
2022-11-28T05:51:58.035Z,3.85
2022-11-28T05:54:42.003Z,4.30
2022-11-28T05:57:25.119Z,3.88
2022-11-28T06:00:08.480Z,4.25
2022-11-28T06:03:01.141Z,4.20
2022-11-28T06:05:44.862Z,4.07
2022-11-28T06:08:27.864Z,4.18
2022-11-28T06:11:12.032Z,3.90
2022-11-28T06:13:54.726Z,4.47
2022-11-28T06:16:37.556Z,4.05
2022-11-28T06:19:20.251Z,4.13
2022-11-28T06:22:03.047Z,4.53
2022-11-28T06:24:45.675Z,3.75
2022-11-28T06:27:29.956Z,4.53
2022-11-28T06:30:12.796Z,4.50
2022-11-28T06:32:55.398Z,4.43
2022-11-28T06:35:38.221Z,4.25
2022-11-28T06:38:20.870Z,4.53
2022-11-28T06:41:05.177Z,4.07
2022-11-28T06:43:49.356Z,4.35
2022-11-28T06:46:32.107Z,4.28
2022-11-28T06:49:14.792Z,5.10
2022-11-28T06:51:57.535Z,4.13
2022-11-28T06:54:40.273Z,4.10
2022-11-28T06:57:22.995Z,4.28
2022-11-28T07:00:08.087Z,4.20
2022-11-28T07:02:50.875Z,4.45
2022-11-28T07:05:33.767Z,4.43
2022-11-28T07:08:16.380Z,4.22
2022-11-28T07:10:59.470Z,4.55
2022-11-28T07:13:43.463Z,4.20
2022-11-28T07:16:28.934Z,4.53
2022-11-28T07:19:12.290Z,4.68
2022-11-28T07:21:54.997Z,4.53
2022-11-28T07:24:37.833Z,4.82
2022-11-28T07:27:20.826Z,5.07
2022-11-28T07:30:03.641Z,4.50
2022-11-28T07:32:47.810Z,4.70
2022-11-28T07:35:31.778Z,4.70
2022-11-28T07:38:14.457Z,4.30
2022-11-28T07:40:57.168Z,4.28
2022-11-28T07:43:39.920Z,5.13
2022-11-28T07:46:22.930Z,5.07
2022-11-28T07:49:07.066Z,4.75
2022-11-28T07:51:49.907Z,5.22
2022-11-28T07:54:32.571Z,4.70
2022-11-28T07:57:15.489Z,4.95
2022-11-28T07:59:58.212Z,5.18
2022-11-28T08:02:41.027Z,4.95
2022-11-28T08:05:25.070Z,4.97
2022-11-28T08:08:07.855Z,5.45
2022-11-28T08:10:50.562Z,5.28
2022-11-28T08:13:33.425Z,5.05
2022-11-28T08:16:17.522Z,5.45
2022-11-28T08:19:01.421Z,5.20
2022-11-28T08:21:45.450Z,4.80
2022-11-28T08:24:28.117Z,5.88
2022-11-28T08:27:10.734Z,6.00
2022-11-28T08:29:54.168Z,5.60
2022-11-28T08:32:37.049Z,5.00
2022-11-28T08:35:20.197Z,6.13
2022-11-28T08:38:04.602Z,5.68
2022-11-28T08:40:47.609Z,5.80
2022-11-28T08:43:30.433Z,6.30
2022-11-28T08:46:14.140Z,5.40
2022-11-28T08:48:56.900Z,5.80
2022-11-28T08:51:39.601Z,5.40
2022-11-28T08:54:23.762Z,5.50
2022-11-28T08:57:06.588Z,5.72
2022-11-28T08:59:49.408Z,5.72
2022-11-28T09:02:32.061Z,5.80
2022-11-28T09:05:14.810Z,5.18
2022-11-28T09:07:58.531Z,5.88
2022-11-28T09:10:42.809Z,5.90
2022-11-28T09:13:25.464Z,5.60
2022-11-28T09:16:08.546Z,6.00
2022-11-28T09:18:51.944Z,5.35
2022-11-28T09:21:34.643Z,5.80
2022-11-28T09:24:17.297Z,5.63
2022-11-28T09:27:01.378Z,5.20
2022-11-28T09:29:44.924Z,5.55
2022-11-28T09:32:27.796Z,5.47
2022-11-28T09:35:10.669Z,5.25
2022-11-28T09:37:53.454Z,5.38
2022-11-28T09:40:37.571Z,5.70
2022-11-28T09:43:25.619Z,5.90
2022-11-28T09:46:12.622Z,6.07
2022-11-28T09:48:56.870Z,5.45
2022-11-28T09:51:45.857Z,5.22
2022-11-28T09:54:33.550Z,5.47
2022-11-28T09:57:19.257Z,5.32
2022-11-28T10:00:03.483Z,4.90
2022-11-28T10:03:08.388Z,5.93
2022-11-28T10:05:55.534Z,5.40
2022-11-28T10:08:41.559Z,5.75
2022-11-28T10:11:33.370Z,5.32
2022-11-28T10:14:33.822Z,5.85
2022-11-28T10:17:21.953Z,4.72
2022-11-28T10:20:07.096Z,5.28
2022-11-28T10:22:51.524Z,5.20
2022-11-28T10:25:36.007Z,5.47
2022-11-28T10:28:20.970Z,4.97
2022-11-28T10:31:07.006Z,5.40
2022-11-28T10:33:55.012Z,5.20
2022-11-28T10:36:42.761Z,5.18
2022-11-28T10:39:26.308Z,5.10
2022-11-28T10:42:14.114Z,5.55
2022-11-28T10:45:02.761Z,5.32
2022-11-28T10:47:54.779Z,5.47
2022-11-28T10:50:43.952Z,5.63
2022-11-28T10:53:34.050Z,5.72
2022-11-28T10:56:23.675Z,5.07
2022-11-28T10:59:11.743Z,5.43
2022-11-28T11:01:54.847Z,4.90
2022-11-28T11:04:38.143Z,5.72
2022-11-28T11:07:29.506Z,5.50
2022-11-28T11:10:16.744Z,5.40
2022-11-28T11:13:00.205Z,5.00
2022-11-28T11:15:43.298Z,5.47
2022-11-28T11:18:27.342Z,4.95
2022-11-28T11:21:14.981Z,5.10
2022-11-28T11:24:14.099Z,5.15
2022-11-28T11:27:03.556Z,5.30
2022-11-28T11:29:50.305Z,4.80
2022-11-28T11:32:34.324Z,4.70
2022-11-28T11:35:18.628Z,5.35
2022-11-28T11:38:16.553Z,5.25
2022-11-28T11:41:19.284Z,5.22
2022-11-28T11:44:16.784Z,5.10
2022-11-28T11:47:03.466Z,5.07
2022-11-28T11:49:47.646Z,4.93
2022-11-28T11:52:30.418Z,5.05
2022-11-28T11:55:14.773Z,4.75
2022-11-28T11:58:05.281Z,5.03
2022-11-28T12:00:48.460Z,5.47
2022-11-28T12:03:34.938Z,4.85
2022-11-28T12:06:19.525Z,5.53
2022-11-28T12:09:07.170Z,5.70
2022-11-28T12:11:51.530Z,5.15
2022-11-28T12:14:36.623Z,5.18
2022-11-28T12:17:47.826Z,5.00
2022-11-28T12:20:38.713Z,5.28
2022-11-28T12:23:29.088Z,5.25
2022-11-28T12:26:17.852Z,5.25
2022-11-28T12:29:06.945Z,4.70
2022-11-28T12:31:55.882Z,5.43
2022-11-28T12:34:43.612Z,4.75
2022-11-28T12:37:55.217Z,4.70
2022-11-28T12:40:42.210Z,4.82
2022-11-28T12:43:31.530Z,4.93
2022-11-28T12:46:18.284Z,5.60
2022-11-28T12:49:14.258Z,4.82
2022-11-28T12:52:02.777Z,4.65
2022-11-28T12:54:53.013Z,5.30
2022-11-28T12:57:39.897Z,4.80
2022-11-28T13:00:24.831Z,4.90
2022-11-28T13:03:12.001Z,4.35
2022-11-28T13:06:00.679Z,4.95
2022-11-28T13:08:49.877Z,5.07
2022-11-28T13:11:48.223Z,4.82
2022-11-28T13:14:34.556Z,4.95
2022-11-28T13:17:22.459Z,4.85
2022-11-28T13:20:12.465Z,4.93
2022-11-28T13:23:05.234Z,5.07
2022-11-28T13:25:51.910Z,4.97
2022-11-28T13:28:38.359Z,4.80
2022-11-28T13:31:24.331Z,4.75
2022-11-28T13:34:14.078Z,4.78
2022-11-28T13:40:07.787Z,5.15
2022-11-28T13:43:03.989Z,4.85
2022-11-28T13:45:52.648Z,4.40
2022-11-28T13:52:11.724Z,5.30
2022-11-28T13:54:54.990Z,5.13
2022-11-28T13:57:39.726Z,4.55
2022-11-28T14:00:25.299Z,4.93
2022-11-28T14:03:18.797Z,5.05
2022-11-28T14:06:03.262Z,4.85
2022-11-28T14:08:47.358Z,5.07
2022-11-28T14:11:41.658Z,4.85
2022-11-28T14:14:35.586Z,4.82
2022-11-28T14:17:25.563Z,5.63
2022-11-28T14:20:17.349Z,4.70
2022-11-28T14:23:08.156Z,5.03
2022-11-28T14:25:52.516Z,5.20
2022-11-28T14:28:40.153Z,5.05
2022-11-28T14:31:30.103Z,5.38
2022-11-28T14:34:34.351Z,5.50
2022-11-28T14:37:50.612Z,5.38
2022-11-28T14:41:00.985Z,5.13
2022-11-28T14:43:46.163Z,5.10
2022-11-28T14:46:31.633Z,5.60
2022-11-28T14:49:18.931Z,5.80
2022-11-28T14:52:37.223Z,5.43
2022-11-28T14:55:20.574Z,5.80
2022-11-28T14:58:05.328Z,5.72
2022-11-28T15:00:51.918Z,6.00
2022-11-28T15:03:40.149Z,5.95
2022-11-28T15:06:25.241Z,5.70
2022-11-28T15:09:09.093Z,5.85
2022-11-28T15:12:02.652Z,5.60
2022-11-28T15:14:48.280Z,6.55
2022-11-28T15:17:33.941Z,6.45
2022-11-28T15:20:23.070Z,6.50
2022-11-28T15:23:05.873Z,6.22
2022-11-28T15:25:54.941Z,5.93
2022-11-28T15:28:38.266Z,6.03
2022-11-28T15:31:22.677Z,6.00
2022-11-28T15:34:08.810Z,6.15
2022-11-28T15:36:54.122Z,6.75
2022-11-28T15:39:39.887Z,6.45
2022-11-28T15:42:25.345Z,6.10
2022-11-28T15:45:10.056Z,6.18
2022-11-28T15:47:53.098Z,6.75
2022-11-28T15:50:35.974Z,6.10
2022-11-28T15:53:21.550Z,6.40
2022-11-28T15:56:10.997Z,6.15
2022-11-28T15:58:54.694Z,6.15
2022-11-28T16:01:37.712Z,6.93
2022-11-28T16:04:21.191Z,6.85
2022-11-28T16:07:03.938Z,6.13
2022-11-28T16:09:54.915Z,6.78
2022-11-28T16:12:37.632Z,6.43
2022-11-28T16:15:21.372Z,6.80
2022-11-28T16:18:04.173Z,6.18
2022-11-28T16:20:47.211Z,6.13
2022-11-28T16:23:33.431Z,6.95
2022-11-28T16:26:23.381Z,6.22
2022-11-28T16:29:13.634Z,6.53
2022-11-28T16:31:56.382Z,6.82
2022-11-28T16:34:45.721Z,7.63
2022-11-28T16:37:29.768Z,6.80
2022-11-28T16:40:15.040Z,6.78
2022-11-28T16:42:59.728Z,6.80
2022-11-28T16:45:42.563Z,7.07
2022-11-28T16:48:27.080Z,6.50
2022-11-28T16:51:29.726Z,6.90
2022-11-28T16:54:28.611Z,6.88
2022-11-28T16:57:12.747Z,7.35
2022-11-28T16:59:57.630Z,6.72
2022-11-28T17:02:40.467Z,6.85
2022-11-28T17:05:23.230Z,6.55
2022-11-28T17:08:06.237Z,7.20
2022-11-28T17:10:48.965Z,6.57
2022-11-28T17:13:31.873Z,6.95
2022-11-28T17:16:20.597Z,6.82
2022-11-28T17:19:03.653Z,7.03
2022-11-28T17:21:47.282Z,7.18
2022-11-28T17:24:32.609Z,6.75
2022-11-28T17:27:16.142Z,7.75
2022-11-28T17:29:59.223Z,6.45
2022-11-28T17:32:43.663Z,7.28
2022-11-28T17:35:28.696Z,7.53
2022-11-28T17:38:11.360Z,7.60
2022-11-28T17:40:54.612Z,8.40
2022-11-28T17:43:39.406Z,7.75
2022-11-28T17:46:22.676Z,7.55
2022-11-28T17:49:07.029Z,7.40
2022-11-28T17:51:50.135Z,7.35
2022-11-28T17:54:35.016Z,7.43
2022-11-28T17:57:17.834Z,7.63
2022-11-28T18:00:00.872Z,7.00
2022-11-28T18:02:45.294Z,8.10
2022-11-28T18:05:29.343Z,6.47
2022-11-28T18:08:14.905Z,7.15
2022-11-28T18:11:04.676Z,7.30
2022-11-28T18:13:47.962Z,7.57
2022-11-28T18:16:31.275Z,7.78
2022-11-28T18:19:14.096Z,7.53
2022-11-28T18:21:58.253Z,7.70
2022-11-28T18:24:40.978Z,7.85
2022-11-28T18:27:23.675Z,7.03
2022-11-28T18:30:07.350Z,8.13
2022-11-28T18:32:50.109Z,8.10
2022-11-28T18:35:32.916Z,8.13
2022-11-28T18:38:16.996Z,8.25
2022-11-28T18:41:03.868Z,8.82
2022-11-28T18:43:46.618Z,8.27
2022-11-28T18:46:29.722Z,7.72
2022-11-28T18:49:12.729Z,7.00
2022-11-28T18:51:56.156Z,7.32
2022-11-28T18:54:40.582Z,7.88
2022-11-28T18:57:23.524Z,7.13
2022-11-28T19:00:06.889Z,8.20
2022-11-28T19:02:52.043Z,7.10
2022-11-28T19:05:39.072Z,7.47
2022-11-28T19:08:22.403Z,7.20
2022-11-28T19:11:09.485Z,7.55
2022-11-28T19:13:53.585Z,6.90
2022-11-28T19:16:38.004Z,7.72
2022-11-28T19:19:20.890Z,8.30
2022-11-28T19:22:04.842Z,7.70
2022-11-28T19:24:48.067Z,7.13
2022-11-28T19:27:32.533Z,7.57
2022-11-28T19:30:15.367Z,8.13
2022-11-28T19:32:58.412Z,7.75
2022-11-28T19:35:41.204Z,7.38
2022-11-28T19:38:23.948Z,8.23
2022-11-28T19:41:07.059Z,8.02
2022-11-28T19:43:51.567Z,7.72
2022-11-28T19:46:35.933Z,8.07
2022-11-28T19:49:20.822Z,8.07
2022-11-28T19:52:04.437Z,8.57
2022-11-28T19:54:47.411Z,7.82
2022-11-28T19:57:30.264Z,8.00
2022-11-28T20:00:15.757Z,8.55
2022-11-28T20:03:02.688Z,7.78
2022-11-28T20:05:45.391Z,8.48
2022-11-28T20:08:28.785Z,8.32
2022-11-28T20:11:12.384Z,8.18
2022-11-28T20:13:56.622Z,7.97
2022-11-28T20:16:41.231Z,7.85
2022-11-28T20:19:25.596Z,8.30
2022-11-28T20:22:09.636Z,7.75
2022-11-28T20:24:52.755Z,7.90
2022-11-28T20:27:35.949Z,8.15
2022-11-28T20:30:19.134Z,8.05
2022-11-28T20:33:03.713Z,8.15
2022-11-28T20:35:47.224Z,7.90
2022-11-28T20:38:30.208Z,7.53
2022-11-28T20:41:13.982Z,8.15
2022-11-28T20:43:57.437Z,8.15
2022-11-28T20:46:40.295Z,7.72
2022-11-28T20:49:24.429Z,7.68
2022-11-28T20:52:07.138Z,7.82
2022-11-28T20:54:49.904Z,8.57
2022-11-28T20:57:32.732Z,7.90
2022-11-28T21:00:15.855Z,7.93
2022-11-28T21:02:58.612Z,7.68
2022-11-28T21:05:42.776Z,7.95
2022-11-28T21:08:25.601Z,8.32
2022-11-28T21:11:09.080Z,8.07
2022-11-28T21:13:51.948Z,8.05
2022-11-28T21:16:34.914Z,8.05
2022-11-28T21:19:17.749Z,7.70
2022-11-28T21:22:02.214Z,7.95
2022-11-28T21:24:49.117Z,8.23
2022-11-28T21:27:32.228Z,8.30
2022-11-28T21:30:15.017Z,7.93
2022-11-28T21:32:57.674Z,6.93
2022-11-28T21:35:40.910Z,8.02
2022-11-28T21:38:24.974Z,8.50
2022-11-28T21:41:07.971Z,7.90
2022-11-28T21:43:50.698Z,8.23
2022-11-28T21:46:33.513Z,8.00
2022-11-28T21:49:17.046Z,7.82
2022-11-28T21:51:59.767Z,7.95
2022-11-28T21:54:43.986Z,7.47
2022-11-28T21:57:26.710Z,8.20
2022-11-28T22:00:20.709Z,8.48
2022-11-28T22:03:14.412Z,7.82
2022-11-28T22:06:00.695Z,8.05
2022-11-28T22:08:43.708Z,8.10
2022-11-28T22:11:29.580Z,7.78
2022-11-28T22:14:12.540Z,8.15
2022-11-28T22:16:55.349Z,8.63
2022-11-28T22:19:38.650Z,8.82
2022-11-28T22:22:22.200Z,8.18
2022-11-28T22:25:05.723Z,8.02
2022-11-28T22:27:49.786Z,7.88
2022-11-28T22:30:32.533Z,7.68
2022-11-28T22:33:15.501Z,7.88
2022-11-28T22:36:03.448Z,8.27
2022-11-28T22:38:46.881Z,8.40
2022-11-28T22:41:30.014Z,9.07
2022-11-28T22:44:17.343Z,8.13
2022-11-28T22:47:00.055Z,7.93
2022-11-28T22:49:43.628Z,8.70
2022-11-28T22:52:26.377Z,8.68
2022-11-28T22:55:09.443Z,8.43
2022-11-28T22:57:52.310Z,8.25
2022-11-28T23:00:37.104Z,8.38
2022-11-28T23:03:20.030Z,8.82
2022-11-28T23:06:04.998Z,8.95
2022-11-28T23:08:48.444Z,9.60
2022-11-28T23:11:32.681Z,9.07
2022-11-28T23:14:15.595Z,9.05
2022-11-28T23:17:00.378Z,9.50
2022-11-28T23:19:45.937Z,9.25
2022-11-28T23:22:28.751Z,9.45
2022-11-28T23:25:11.670Z,9.52
2022-11-28T23:27:54.494Z,9.48
2022-11-28T23:30:37.353Z,9.57
2022-11-28T23:33:21.514Z,9.90
2022-11-28T23:36:12.164Z,10.30
2022-11-28T23:38:56.366Z,10.02
2022-11-28T23:41:39.138Z,9.90
2022-11-28T23:44:22.062Z,10.13
2022-11-28T23:47:05.966Z,9.77
2022-11-28T23:49:50.057Z,10.32
2022-11-28T23:52:32.762Z,10.00
2022-11-28T23:55:15.498Z,11.10
2022-11-28T23:57:58.198Z,10.88
